createdAt,value
2022-10-24T00:02:28.570Z,15.20
2022-10-24T00:04:56.031Z,15.20
2022-10-24T00:07:23.537Z,15.20
2022-10-24T00:09:51.419Z,15.20
2022-10-24T00:12:18.985Z,15.10
2022-10-24T00:14:47.289Z,15.40
2022-10-24T00:17:14.834Z,15.40
2022-10-24T00:19:42.368Z,15.40
2022-10-24T00:22:09.912Z,15.30
2022-10-24T00:24:38.238Z,15.30
2022-10-24T00:27:05.782Z,15.30
2022-10-24T00:29:33.330Z,15.30
2022-10-24T00:32:00.931Z,15.30
2022-10-24T00:34:28.481Z,15.20
2022-10-24T00:36:56.044Z,15.30
2022-10-24T00:39:23.983Z,15.40
2022-10-24T00:41:51.517Z,15.40
2022-10-24T00:44:22.029Z,15.60
2022-10-24T00:47:05.398Z,15.60
2022-10-24T00:49:32.931Z,15.60
2022-10-24T00:52:03.047Z,15.50
2022-10-24T00:54:30.617Z,15.50
2022-10-24T00:56:58.151Z,15.40
2022-10-24T00:59:26.454Z,15.40
2022-10-24T01:01:54.048Z,15.40
2022-10-24T01:04:21.566Z,15.40
2022-10-24T01:07:07.640Z,15.40
2022-10-24T01:09:54.071Z,15.30
2022-10-24T01:12:24.244Z,15.30
2022-10-24T01:15:19.215Z,15.30
2022-10-24T01:17:55.960Z,15.20
2022-10-24T01:20:23.481Z,15.20
2022-10-24T01:23:12.067Z,15.20
2022-10-24T01:25:45.170Z,15.20
2022-10-24T01:28:12.762Z,15.10
2022-10-24T01:30:49.267Z,15.20
2022-10-24T01:33:20.335Z,15.40
2022-10-24T01:35:50.684Z,15.40
2022-10-24T01:38:24.291Z,15.40
2022-10-24T01:40:51.946Z,15.40
2022-10-24T01:43:40.510Z,15.30
2022-10-24T01:46:08.001Z,15.30
2022-10-24T01:48:36.303Z,15.20
2022-10-24T01:51:04.192Z,15.20
2022-10-24T01:53:31.709Z,15.20
2022-10-24T01:56:00.091Z,15.20
2022-10-24T01:58:28.440Z,15.20
2022-10-24T02:00:55.985Z,15.20
2022-10-24T02:03:32.312Z,15.20
2022-10-24T02:05:59.886Z,15.10
2022-10-24T02:08:29.991Z,15.40
2022-10-24T02:10:57.516Z,15.40
2022-10-24T02:13:28.625Z,15.20
2022-10-24T02:15:56.154Z,15.20
2022-10-24T02:18:23.685Z,15.20
2022-10-24T02:21:00.722Z,15.10
2022-10-24T02:23:28.263Z,15.10
2022-10-24T02:25:55.819Z,15.10
2022-10-24T02:28:23.391Z,15.30
2022-10-24T02:30:54.145Z,15.30
2022-10-24T02:33:21.685Z,15.30
2022-10-24T02:35:49.529Z,15.20
2022-10-24T02:38:22.739Z,15.20
2022-10-24T02:40:50.283Z,15.20
2022-10-24T02:43:17.879Z,15.20
2022-10-24T02:45:45.395Z,15.20
2022-10-24T02:48:12.924Z,15.20
2022-10-24T02:50:42.310Z,15.20
2022-10-24T02:53:15.625Z,15.20
2022-10-24T02:55:43.937Z,15.10
2022-10-24T02:58:11.511Z,15.10
2022-10-24T03:00:39.192Z,15.20
2022-10-24T03:03:06.567Z,15.10
2022-10-24T03:05:35.195Z,15.10
2022-10-24T03:08:02.747Z,15.10
2022-10-24T03:10:30.299Z,15.10
2022-10-24T03:12:58.612Z,15.10
2022-10-24T03:15:26.176Z,15.10
2022-10-24T03:17:53.675Z,15.10
2022-10-24T03:20:22.022Z,15.10
2022-10-24T03:22:49.557Z,15.10
2022-10-24T03:25:17.073Z,15.20
2022-10-24T03:27:45.722Z,15.10
2022-10-24T03:30:12.956Z,15.10
2022-10-24T03:32:40.498Z,15.10
2022-10-24T03:35:11.684Z,15.20
2022-10-24T03:37:35.729Z,15.20
2022-10-24T03:40:03.262Z,15.20
2022-10-24T03:42:30.878Z,15.40
2022-10-24T03:44:58.373Z,15.40
2022-10-24T03:47:25.908Z,15.40
2022-10-24T03:49:54.532Z,15.40
2022-10-24T03:52:22.078Z,15.40
2022-10-24T03:54:49.611Z,15.40
2022-10-24T03:57:18.879Z,15.60
2022-10-24T03:59:46.378Z,15.60
2022-10-24T04:02:14.689Z,15.60
2022-10-24T04:04:42.297Z,15.60
2022-10-24T04:07:09.819Z,15.50
2022-10-24T04:09:37.365Z,15.50
2022-10-24T04:12:05.018Z,15.70
2022-10-24T04:14:32.565Z,15.70
2022-10-24T04:17:00.087Z,15.60
2022-10-24T04:19:27.654Z,15.50
2022-10-24T04:21:55.200Z,15.50
2022-10-24T04:24:22.736Z,15.60
2022-10-24T04:39:11.428Z,16.20
2022-10-24T04:41:38.973Z,16.30
2022-10-24T04:44:06.496Z,16.20
2022-10-24T04:46:34.870Z,16.10
2022-10-24T04:49:03.179Z,16.00
2022-10-24T04:51:30.721Z,16.00
2022-10-24T04:53:58.322Z,15.90
2022-10-24T04:56:25.859Z,15.80
2022-10-24T04:58:53.377Z,15.70
2022-10-24T05:01:21.775Z,15.60
2022-10-24T05:03:49.305Z,15.60
2022-10-24T05:06:16.778Z,15.60
2022-10-24T05:08:45.140Z,15.60
2022-10-24T05:11:13.430Z,15.50
2022-10-24T05:13:41.761Z,15.50
2022-10-24T05:16:09.710Z,15.50
2022-10-24T05:18:37.242Z,15.50
2022-10-24T05:21:04.773Z,15.50
2022-10-24T05:23:32.358Z,15.40
2022-10-24T05:26:00.659Z,15.40
2022-10-24T05:28:28.184Z,15.40
2022-10-24T05:30:56.528Z,15.40
2022-10-24T05:33:24.180Z,15.40
2022-10-24T05:35:51.736Z,15.40
2022-10-24T05:38:19.319Z,15.40
2022-10-24T05:40:49.576Z,15.40
2022-10-24T05:43:17.892Z,15.60
2022-10-24T05:45:45.471Z,15.60
2022-10-24T05:48:12.994Z,15.60
2022-10-24T05:50:40.528Z,15.60
2022-10-24T05:53:08.857Z,15.50
2022-10-24T05:55:36.403Z,15.50
2022-10-24T05:58:03.946Z,15.50
2022-10-24T06:00:31.536Z,15.70
2022-10-24T06:02:59.068Z,15.80
2022-10-24T06:05:26.621Z,15.70
2022-10-24T06:07:54.187Z,15.70
2022-10-24T06:10:21.721Z,15.70
2022-10-24T06:12:49.247Z,15.70
2022-10-24T06:15:16.832Z,15.80
2022-10-24T06:17:45.134Z,15.80
2022-10-24T06:20:12.675Z,15.80
2022-10-24T06:22:40.284Z,15.80
2022-10-24T06:25:07.826Z,15.80
2022-10-24T06:27:35.360Z,15.80
2022-10-24T06:30:02.974Z,16.00
2022-10-24T06:32:30.448Z,16.10
2022-10-24T06:34:58.752Z,16.00
2022-10-24T06:37:26.345Z,16.00
2022-10-24T06:39:53.870Z,16.00
2022-10-24T06:42:21.399Z,16.00
2022-10-24T06:44:49.036Z,16.00
2022-10-24T06:47:17.291Z,16.20
2022-10-24T06:49:44.828Z,16.20
2022-10-24T06:52:12.421Z,16.20
2022-10-24T06:54:39.956Z,16.20
2022-10-24T06:57:07.491Z,16.10
2022-10-24T06:59:35.068Z,16.10
2022-10-24T07:02:05.798Z,16.20
2022-10-24T07:04:30.892Z,16.10
2022-10-24T07:06:58.801Z,16.10
2022-10-24T07:09:26.340Z,16.20
2022-10-24T07:11:53.870Z,16.20
2022-10-24T07:14:21.467Z,16.20
2022-10-24T07:16:48.991Z,16.20
2022-10-24T07:19:17.275Z,16.20
2022-10-24T07:21:45.622Z,16.20
2022-10-24T07:24:13.919Z,16.20
2022-10-24T07:26:42.200Z,16.30
2022-10-24T07:29:10.673Z,16.30
2022-10-24T07:31:38.963Z,16.30
2022-10-24T07:34:06.487Z,16.30
2022-10-24T07:36:34.051Z,16.30
2022-10-24T07:39:02.369Z,16.40
2022-10-24T07:41:29.905Z,16.40
2022-10-24T07:43:58.232Z,16.40
2022-10-24T07:46:25.777Z,16.40
2022-10-24T07:48:53.320Z,16.40
2022-10-24T07:51:20.917Z,16.70
2022-10-24T07:53:48.449Z,16.70
2022-10-24T07:56:15.967Z,16.60
2022-10-24T07:58:44.297Z,16.80
2022-10-24T08:01:11.947Z,16.80
2022-10-24T08:03:39.427Z,16.70
2022-10-24T08:06:10.437Z,16.70
2022-10-24T08:08:38.236Z,16.70
2022-10-24T08:11:08.282Z,16.70
2022-10-24T08:13:36.624Z,16.70
2022-10-24T08:16:07.033Z,16.70
2022-10-24T08:18:38.706Z,16.70
2022-10-24T08:21:02.946Z,16.80
2022-10-24T08:23:31.247Z,16.80
2022-10-24T08:25:58.777Z,16.80
2022-10-24T08:28:26.362Z,16.80
2022-10-24T08:30:59.543Z,16.90
2022-10-24T08:33:27.093Z,17.00
2022-10-24T08:35:54.668Z,17.10
2022-10-24T08:38:22.192Z,17.20
2022-10-24T08:40:49.738Z,17.30
2022-10-24T08:43:17.292Z,17.40
2022-10-24T08:46:03.020Z,17.50
2022-10-24T08:48:30.585Z,17.50
2022-10-24T08:51:00.730Z,17.50
2022-10-24T08:53:28.284Z,17.60
2022-10-24T08:55:55.859Z,17.60
2022-10-24T08:58:35.060Z,17.60
2022-10-24T09:01:03.424Z,17.60
2022-10-24T09:03:54.963Z,17.60
2022-10-24T09:06:04.227Z,17.60
2022-10-24T09:08:49.902Z,17.60
2022-10-24T09:11:17.420Z,17.60
2022-10-24T09:13:44.945Z,17.90
2022-10-24T09:16:13.295Z,18.10
2022-10-24T09:18:40.843Z,18.10
2022-10-24T09:21:08.409Z,18.00
2022-10-24T09:23:35.992Z,18.00
2022-10-24T09:26:03.522Z,18.00
2022-10-24T09:28:31.070Z,17.90
2022-10-24T09:30:58.634Z,17.90
2022-10-24T09:33:26.168Z,18.10
2022-10-24T09:35:53.701Z,18.20
2022-10-24T09:38:27.844Z,18.10
2022-10-24T09:40:58.207Z,18.10
2022-10-24T09:43:31.332Z,18.10
2022-10-24T09:46:05.078Z,18.20
2022-10-24T09:48:35.272Z,18.20
2022-10-24T09:51:02.864Z,18.50
2022-10-24T09:53:35.835Z,18.40
2022-10-24T09:56:14.942Z,18.30
2022-10-24T09:58:42.470Z,18.20
2022-10-24T10:01:22.470Z,18.20
2022-10-24T10:04:08.636Z,18.20
2022-10-24T10:06:32.136Z,18.40
2022-10-24T10:08:59.662Z,18.50
2022-10-24T10:11:27.973Z,18.60
2022-10-24T10:13:55.570Z,18.60
2022-10-24T10:16:29.077Z,18.70
2022-10-24T10:19:19.020Z,19.10
2022-10-24T10:21:52.152Z,19.10
2022-10-24T10:24:25.848Z,19.10
2022-10-24T10:26:53.374Z,19.10
2022-10-24T10:29:23.763Z,19.10
2022-10-24T10:31:52.088Z,19.00
2022-10-24T10:34:21.414Z,18.90
2022-10-24T10:37:02.879Z,18.90
2022-10-24T10:39:36.049Z,18.90
2022-10-24T10:42:09.658Z,18.90
2022-10-24T10:44:40.078Z,18.90
2022-10-24T10:47:13.497Z,18.90
2022-10-24T10:49:41.053Z,18.80
2022-10-24T10:52:23.574Z,18.70
2022-10-24T10:55:21.385Z,18.70
2022-10-24T10:57:54.996Z,18.70
2022-10-24T11:00:46.430Z,18.90
2022-10-24T11:03:25.697Z,18.90
2022-10-24T11:06:05.319Z,18.70
2022-10-24T11:08:35.763Z,18.60
2022-10-24T11:11:03.308Z,18.80
2022-10-24T11:13:34.313Z,18.60
2022-10-24T11:16:02.030Z,18.70
2022-10-24T11:18:35.762Z,18.70
2022-10-24T11:21:09.202Z,18.60
2022-10-24T11:23:36.788Z,18.50
2022-10-24T11:26:34.391Z,18.60
2022-10-24T11:29:17.953Z,18.50
2022-10-24T11:31:54.606Z,18.50
2022-10-24T11:34:40.917Z,18.30
2022-10-24T11:37:08.530Z,18.30
2022-10-24T11:39:45.066Z,18.50
2022-10-24T11:42:31.326Z,18.40
2022-10-24T11:45:13.679Z,18.40
2022-10-24T11:47:44.230Z,18.30
2022-10-24T11:50:30.815Z,18.30
2022-10-24T11:53:13.159Z,18.30
2022-10-24T11:55:40.702Z,18.30
2022-10-24T11:58:14.696Z,18.50
2022-10-24T12:01:19.304Z,18.50
2022-10-24T12:03:58.622Z,18.50
2022-10-24T12:06:43.981Z,18.40
2022-10-24T12:09:35.756Z,18.40
2022-10-24T12:12:09.217Z,18.30
2022-10-24T12:14:46.049Z,18.30
2022-10-24T12:17:32.838Z,18.30
2022-10-24T12:20:00.359Z,18.30
2022-10-24T12:22:30.776Z,18.30
2022-10-24T12:25:32.261Z,18.30
2022-10-24T12:27:59.774Z,18.30
2022-10-24T12:30:28.077Z,18.30
2022-10-24T12:33:07.420Z,18.30
2022-10-24T12:35:34.987Z,18.30
2022-10-24T12:38:02.528Z,18.30
2022-10-24T12:40:48.493Z,18.30
2022-10-24T12:43:31.963Z,18.40
2022-10-24T12:45:59.553Z,18.30
2022-10-24T12:48:36.136Z,18.30
2022-10-24T12:51:03.671Z,18.30
2022-10-24T12:53:31.264Z,18.30
2022-10-24T12:55:59.577Z,18.50
2022-10-24T12:58:33.051Z,18.50
2022-10-24T13:01:01.477Z,18.70
2022-10-24T13:03:56.433Z,18.70
2022-10-24T13:06:36.496Z,18.50
2022-10-24T13:09:04.045Z,18.50
2022-10-24T13:11:54.149Z,18.40
2022-10-24T13:14:36.507Z,18.40
2022-10-24T13:17:41.201Z,18.30
2022-10-24T13:20:23.808Z,18.30
2022-10-24T13:22:51.454Z,18.30
2022-10-24T13:25:37.687Z,18.20
2022-10-24T13:28:20.403Z,18.20
2022-10-24T13:30:49.683Z,18.20
2022-10-24T13:33:33.916Z,18.20
2022-10-24T13:36:10.319Z,18.30
2022-10-24T13:38:37.855Z,18.50
2022-10-24T13:41:05.439Z,18.50
2022-10-24T13:43:33.025Z,18.50
2022-10-24T13:46:03.215Z,18.40
2022-10-24T13:48:30.808Z,18.40
2022-10-24T13:51:13.432Z,18.40
2022-10-24T13:53:44.739Z,18.40
2022-10-24T13:56:12.270Z,18.40
2022-10-24T13:58:44.705Z,18.50
2022-10-24T14:01:28.347Z,18.50
2022-10-24T14:03:56.553Z,18.50
2022-10-24T14:06:24.100Z,18.50
2022-10-24T14:09:03.911Z,18.50
2022-10-24T14:11:21.264Z,18.50
2022-10-24T14:13:49.539Z,18.50
2022-10-24T14:16:17.115Z,18.50
2022-10-24T14:18:44.906Z,18.50
2022-10-24T14:21:18.434Z,18.50
2022-10-24T14:23:56.802Z,18.50
2022-10-24T14:26:27.348Z,18.40
2022-10-24T14:28:58.698Z,18.40
2022-10-24T14:31:23.364Z,18.40
2022-10-24T14:33:50.943Z,18.50
2022-10-24T14:36:18.488Z,18.80
2022-10-24T14:38:46.051Z,18.70
2022-10-24T14:41:13.606Z,18.60
2022-10-24T14:43:41.164Z,18.50
2022-10-24T14:46:19.411Z,18.50
2022-10-24T14:48:45.319Z,18.40
2022-10-24T14:51:25.103Z,18.40
2022-10-24T14:53:53.409Z,18.30
2022-10-24T14:56:26.339Z,18.30
2022-10-24T14:58:54.248Z,18.30
2022-10-24T15:01:21.968Z,18.30
2022-10-24T15:03:55.195Z,18.20
2022-10-24T15:06:26.347Z,18.20
2022-10-24T15:09:11.700Z,18.20
2022-10-24T15:11:40.449Z,18.20
2022-10-24T15:14:26.354Z,18.20
2022-10-24T15:16:55.656Z,18.30
2022-10-24T15:19:23.182Z,18.30
2022-10-24T15:21:50.697Z,18.50
2022-10-24T15:24:24.762Z,18.50
2022-10-24T15:26:52.320Z,18.50
2022-10-24T15:29:19.848Z,18.50
2022-10-24T15:31:47.411Z,18.50
2022-10-24T15:34:14.942Z,18.40
2022-10-24T15:36:43.275Z,18.30
2022-10-24T15:39:11.016Z,18.30
2022-10-24T15:41:38.551Z,18.30
2022-10-24T15:44:18.265Z,18.30
2022-10-24T15:46:45.799Z,18.30
2022-10-24T15:49:13.334Z,18.20
2022-10-24T15:51:42.566Z,18.20
2022-10-24T15:54:08.482Z,18.10
2022-10-24T15:56:36.016Z,18.00
2022-10-24T15:59:03.883Z,18.00
2022-10-24T16:01:31.521Z,18.20
2022-10-24T16:03:59.715Z,18.00
2022-10-24T16:06:27.313Z,18.00
2022-10-24T16:08:54.850Z,18.00
2022-10-24T16:11:22.401Z,17.90
2022-10-24T16:13:49.995Z,17.80
2022-10-24T16:16:17.560Z,17.80
2022-10-24T16:18:45.095Z,17.70
2022-10-24T16:21:18.726Z,17.70
2022-10-24T16:23:46.318Z,17.60
2022-10-24T16:26:13.834Z,17.60
2022-10-24T16:28:41.410Z,17.50
2022-10-24T16:31:09.721Z,17.70
2022-10-24T16:33:37.256Z,17.70
2022-10-24T16:36:05.774Z,17.50
2022-10-24T16:38:33.319Z,17.50
2022-10-24T16:41:00.857Z,17.40
2022-10-24T16:43:29.197Z,17.20
2022-10-24T16:46:02.410Z,17.20
2022-10-24T16:48:29.919Z,17.20
2022-10-24T16:50:57.522Z,17.10
2022-10-24T16:53:25.104Z,17.30
2022-10-24T16:55:52.654Z,17.50
2022-10-24T16:58:20.225Z,17.60
2022-10-24T17:00:48.553Z,17.30
2022-10-24T17:03:16.055Z,17.30
2022-10-24T17:05:44.435Z,17.10
2022-10-24T17:08:11.928Z,17.10
2022-10-24T17:10:39.473Z,17.00
2022-10-24T17:13:07.049Z,17.10
2022-10-24T17:15:34.573Z,17.10
2022-10-24T17:18:02.119Z,17.00
2022-10-24T17:20:30.468Z,16.80
2022-10-24T17:23:00.746Z,16.80
2022-10-24T17:25:25.532Z,16.80
2022-10-24T17:27:53.131Z,16.70
2022-10-24T17:30:20.668Z,16.70
2022-10-24T17:32:48.413Z,16.60
2022-10-24T17:35:16.613Z,16.60
2022-10-24T17:37:50.549Z,16.50
2022-10-24T17:40:18.092Z,16.50
2022-10-24T17:42:48.630Z,16.50
2022-10-24T17:45:15.968Z,16.50
2022-10-24T17:47:43.538Z,16.50
2022-10-24T17:50:11.815Z,16.40
2022-10-24T17:52:39.349Z,16.40
2022-10-24T17:55:34.406Z,16.40
2022-10-24T17:57:49.236Z,16.40
2022-10-24T18:00:16.840Z,16.40
2022-10-24T18:02:45.173Z,16.60
2022-10-24T18:05:12.701Z,16.60
2022-10-24T18:07:40.234Z,16.50
2022-10-24T18:10:08.614Z,16.40
2022-10-24T18:12:36.919Z,16.40
2022-10-24T18:15:04.450Z,16.40
2022-10-24T18:17:32.784Z,16.30
2022-10-24T18:20:00.332Z,16.30
2022-10-24T18:22:30.720Z,16.30
2022-10-24T18:24:59.080Z,16.20
2022-10-24T18:27:27.383Z,16.20
2022-10-24T18:29:55.686Z,16.40
2022-10-24T18:32:23.280Z,16.40
2022-10-24T18:34:50.799Z,16.40
2022-10-24T18:37:18.339Z,16.30
2022-10-24T18:39:45.886Z,16.50
2022-10-24T18:42:26.563Z,16.40
2022-10-24T18:44:54.132Z,16.40
2022-10-24T18:47:24.742Z,16.30
2022-10-24T18:49:49.405Z,16.20
2022-10-24T18:52:16.978Z,16.20
2022-10-24T18:54:51.278Z,16.30
2022-10-24T18:57:22.005Z,16.30
2022-10-24T18:59:49.577Z,16.30
2022-10-24T19:02:26.310Z,16.10
2022-10-24T19:04:53.835Z,16.10
2022-10-24T19:07:22.134Z,15.90
2022-10-24T19:09:49.662Z,15.90
2022-10-24T19:12:18.089Z,15.80
2022-10-24T19:14:45.616Z,15.80
2022-10-24T19:17:13.140Z,15.80
2022-10-24T19:19:40.716Z,15.80
2022-10-24T19:22:08.230Z,15.70
2022-10-24T19:24:35.766Z,15.70
2022-10-24T19:27:03.339Z,15.90
2022-10-24T19:29:30.855Z,15.90
2022-10-24T19:31:59.148Z,15.80
2022-10-24T19:34:26.722Z,15.70
2022-10-24T19:36:54.255Z,15.70
2022-10-24T19:39:22.568Z,15.80
2022-10-24T19:41:50.123Z,15.90
2022-10-24T19:44:17.668Z,15.80
2022-10-24T19:46:45.195Z,16.00
2022-10-24T19:49:13.548Z,16.20
2022-10-24T19:51:41.078Z,16.20
2022-10-24T19:54:08.621Z,16.10
2022-10-24T19:56:36.188Z,16.20
2022-10-24T19:59:03.705Z,16.20
2022-10-24T20:01:31.303Z,16.00
2022-10-24T20:03:59.678Z,15.90
2022-10-24T20:06:27.202Z,15.80
2022-10-24T20:08:55.505Z,15.60
2022-10-24T20:11:23.080Z,15.60
2022-10-24T20:13:50.706Z,15.60
2022-10-24T20:16:18.220Z,15.50
2022-10-24T20:18:45.771Z,15.50
2022-10-24T20:21:13.337Z,15.40
2022-10-24T20:23:40.882Z,15.40
2022-10-24T20:26:11.182Z,15.40
2022-10-24T20:28:38.725Z,15.40
2022-10-24T20:31:07.036Z,15.40
2022-10-24T20:33:34.626Z,15.40
2022-10-24T20:36:02.145Z,15.40
2022-10-24T20:38:29.669Z,15.40
2022-10-24T20:40:58.032Z,15.40
2022-10-24T20:43:25.559Z,15.40
2022-10-24T20:45:53.095Z,15.40
2022-10-24T20:48:20.668Z,15.70
2022-10-24T20:50:48.194Z,15.70
2022-10-24T20:53:16.495Z,15.60
2022-10-24T20:55:44.817Z,15.60
2022-10-24T20:58:14.504Z,15.60
2022-10-24T21:03:09.608Z,15.60
2022-10-24T21:05:37.136Z,15.60
2022-10-24T21:08:05.425Z,15.50
2022-10-24T21:10:32.991Z,15.50
2022-10-24T21:13:00.515Z,15.50
2022-10-24T21:15:28.839Z,15.50
2022-10-24T21:17:56.413Z,15.40
2022-10-24T21:20:23.935Z,15.50
2022-10-24T21:22:51.461Z,15.40
2022-10-24T21:25:19.035Z,15.40
2022-10-24T21:27:47.587Z,15.30
2022-10-24T21:30:15.089Z,15.30
2022-10-24T21:32:43.205Z,15.20
2022-10-24T21:35:10.740Z,15.20
2022-10-24T21:37:38.293Z,15.10
2022-10-24T21:40:06.054Z,15.10
2022-10-24T21:42:33.550Z,15.10
2022-10-24T21:45:01.083Z,15.00
2022-10-24T21:47:28.678Z,15.00
2022-10-24T21:49:56.216Z,14.90
2022-10-24T21:52:23.739Z,14.90
2022-10-24T21:54:51.311Z,14.80
2022-10-24T21:57:18.848Z,14.70
2022-10-24T21:59:46.361Z,14.70
2022-10-24T22:02:14.188Z,14.70
2022-10-24T22:04:41.617Z,14.70
2022-10-24T22:07:09.912Z,14.70
2022-10-24T22:09:37.791Z,14.60
2022-10-24T22:12:05.397Z,14.70
2022-10-24T22:14:32.949Z,14.60
2022-10-24T22:17:00.514Z,14.60
2022-10-24T22:19:28.037Z,14.60
2022-10-24T22:21:55.576Z,14.60
2022-10-24T22:24:23.158Z,14.50
2022-10-24T22:26:50.663Z,14.50
2022-10-24T22:29:20.956Z,14.50
2022-10-24T22:31:48.572Z,14.50
2022-10-24T22:34:16.866Z,14.70
2022-10-24T22:36:56.129Z,14.80
2022-10-24T22:39:23.654Z,14.70
2022-10-24T22:41:51.267Z,14.60
2022-10-24T22:44:18.853Z,14.60
2022-10-24T22:47:04.935Z,14.70
2022-10-24T22:49:35.923Z,14.70
2022-10-24T22:52:03.451Z,14.70
2022-10-24T22:54:31.754Z,14.60
2022-10-24T22:56:59.426Z,14.60
2022-10-24T22:59:26.998Z,14.60
2022-10-24T23:02:15.884Z,14.60
2022-10-24T23:04:59.084Z,14.50
2022-10-24T23:07:27.755Z,14.50
2022-10-24T23:09:54.987Z,14.50
2022-10-24T23:12:22.594Z,14.50
2022-10-24T23:14:50.221Z,14.50
2022-10-24T23:17:20.225Z,14.50
2022-10-24T23:19:47.817Z,14.40
2022-10-24T23:22:27.250Z,14.40
2022-10-24T23:24:54.719Z,14.40
2022-10-24T23:27:38.529Z,14.70
2022-10-24T23:30:06.203Z,14.90
2022-10-24T23:32:33.788Z,14.80
2022-10-24T23:35:01.450Z,14.70
2022-10-24T23:37:35.031Z,14.70
2022-10-24T23:40:02.677Z,14.80
2022-10-24T23:42:30.298Z,14.80
2022-10-24T23:44:58.686Z,14.70
2022-10-24T23:47:47.548Z,14.60
2022-10-24T23:50:46.041Z,14.80
2022-10-24T23:53:28.385Z,14.80
2022-10-24T23:55:55.957Z,15.00
2022-10-24T23:58:23.486Z,15.20
